Time;durP1;ratioP1;P1;durP2;ratioP2;P2;SDS_P1;SDS_P2;PMS_P1;PMS_P2;Temp;Humidity;BMP_temperature;BMP_pressure;BME280_temperature;BME280_humidity;BME280_pressure;Samples;Min_cycle;Max_cycle;Signal;HPM_P1;HPM_P2
2022/01/16 00:04:05;;;;;;;12.53;9.13;;;6.40;90.60;;;;;;917701;153;27525;-73
2022/01/16 00:04:17;;;;;;;10.87;9.47;;;6.40;90.60;;;;;;916368;152;27808;-73
2022/01/16 00:06:45;;;;;;;10.40;9.20;;;6.40;90.60;;;;;;918694;153;27367;-73
2022/01/16 00:09:10;;;;;;;10.57;9.47;;;6.40;90.60;;;;;;918359;152;28030;-73
2022/01/16 00:11:37;;;;;;;12.27;9.87;;;6.40;90.60;;;;;;919001;153;27363;-73
2022/01/16 00:14:03;;;;;;;11.43;10.07;;;6.40;90.60;;;;;;920262;152;27399;-73
2022/01/16 00:16:30;;;;;;;12.13;10.27;;;6.40;90.70;;;;;;917896;153;27416;-73
2022/01/16 00:19:00;;;;;;;12.43;10.37;;;6.40;90.70;;;;;;917709;152;27366;-73
2022/01/16 00:21:26;;;;;;;11.40;9.47;;;6.40;90.80;;;;;;918357;152;27343;-73
2022/01/16 00:23:53;;;;;;;12.20;10.30;;;6.40;90.80;;;;;;918755;152;27356;-73
2022/01/16 00:26:19;;;;;;;11.53;9.77;;;6.40;90.80;;;;;;919168;153;27534;-73
2022/01/16 00:28:46;;;;;;;10.93;9.83;;;6.40;90.80;;;;;;919478;152;27367;-73
2022/01/16 00:31:12;;;;;;;10.53;9.07;;;6.40;90.80;;;;;;918086;153;28025;-73
2022/01/16 00:33:42;;;;;;;10.47;8.90;;;6.40;90.80;;;;;;917015;153;27285;-73
2022/01/16 00:36:06;;;;;;;10.03;8.93;;;6.40;90.80;;;;;;898030;155;27414;-73
2022/01/16 00:38:33;;;;;;;9.87;8.73;;;6.40;90.80;;;;;;899232;156;27443;-73
2022/01/16 00:40:59;;;;;;;9.57;8.27;;;6.30;90.70;;;;;;899183;156;27430;-72
2022/01/16 00:43:31;;;;;;;8.00;7.20;;;6.30;90.80;;;;;;884027;158;27440;-73
2022/01/16 00:45:58;;;;;;;10.47;7.93;;;6.30;90.80;;;;;;884601;159;27892;-73
2022/01/16 00:48:24;;;;;;;9.57;8.47;;;6.30;90.80;;;;;;900342;155;27368;-73
2022/01/16 00:50:51;;;;;;;8.30;7.27;;;6.30;90.90;;;;;;900003;156;27938;-73
2022/01/16 00:53:18;;;;;;;10.07;9.00;;;6.30;90.90;;;;;;898420;155;27446;-73
2022/01/16 00:55:47;;;;;;;9.97;8.17;;;6.30;91.00;;;;;;898066;156;27477;-73
2022/01/16 00:58:13;;;;;;;10.47;8.30;;;6.30;91.10;;;;;;898873;155;27395;-73
2022/01/16 01:00:40;;;;;;;11.70;9.00;;;6.30;91.20;;;;;;887534;156;27439;-73
2022/01/16 01:03:07;;;;;;;9.80;8.50;;;6.30;91.20;;;;;;885493;158;27472;-73
2022/01/16 01:05:36;;;;;;;11.63;8.70;;;6.40;91.30;;;;;;883854;158;27450;-73
2022/01/16 01:08:03;;;;;;;11.30;9.13;;;6.40;91.30;;;;;;884503;158;27515;-73
2022/01/16 01:10:35;;;;;;;10.80;8.23;;;6.40;91.30;;;;;;885720;159;27506;-72
2022/01/16 01:13:07;;;;;;;9.60;8.57;;;6.40;91.20;;;;;;885046;158;27616;-73
2022/01/16 01:15:30;;;;;;;9.93;8.23;;;6.40;91.20;;;;;;884893;158;27491;-73
2022/01/16 01:17:54;;;;;;;10.83;8.60;;;6.40;91.10;;;;;;885508;158;27542;-72
2022/01/16 01:20:21;;;;;;;10.20;7.97;;;6.40;91.10;;;;;;884902;159;28662;-73
2022/01/16 01:22:47;;;;;;;10.63;8.23;;;6.30;91.10;;;;;;884003;158;27407;-73
2022/01/16 01:25:14;;;;;;;8.53;7.27;;;6.30;91.20;;;;;;885342;159;27449;-73
2022/01/16 01:27:41;;;;;;;9.07;7.37;;;6.30;91.20;;;;;;883554;158;27533;-73
2022/01/16 01:30:09;;;;;;;8.43;6.83;;;6.30;91.30;;;;;;888780;158;27397;-73
2022/01/16 01:32:36;;;;;;;9.03;6.63;;;6.30;91.30;;;;;;885135;158;27419;-73
2022/01/16 01:35:01;;;;;;;7.67;6.87;;;6.30;91.20;;;;;;884304;159;27426;-73
2022/01/16 01:37:27;;;;;;;7.80;6.70;;;6.30;91.10;;;;;;885231;159;27519;-73
2022/01/16 01:39:54;;;;;;;10.10;7.17;;;6.30;91.10;;;;;;905479;155;27433;-73
2022/01/16 01:42:20;;;;;;;9.40;7.13;;;6.20;91.20;;;;;;883501;159;27547;-73
2022/01/16 01:53:01;;;;;;;7.77;6.07;;;6.10;91.20;;;;;;869465;161;27402;-73
2022/01/16 01:55:31;;;;;;;8.77;6.13;;;6.10;91.20;;;;;;868349;162;27484;-73
2022/01/16 01:57:57;;;;;;;7.73;6.17;;;6.10;91.20;;;;;;885970;158;27559;-73
2022/01/16 02:00:24;;;;;;;8.97;6.63;;;6.00;91.30;;;;;;889350;156;27443;-72
2022/01/16 02:05:35;;;;;;;8.87;6.67;;;6.00;91.40;;;;;;900118;156;27364;-75
2022/01/16 02:08:02;;;;;;;9.13;6.20;;;6.00;91.40;;;;;;899138;155;27480;-73
2022/01/16 02:10:28;;;;;;;5.97;5.37;;;6.00;91.40;;;;;;901165;156;27540;-73
2022/01/16 02:13:00;;;;;;;7.00;6.30;;;5.90;91.50;;;;;;900194;155;27489;-72
2022/01/16 02:29:29;;;;;;;8.00;6.57;;;5.80;91.50;;;;;;900969;155;27410;-73
2022/01/16 02:31:24;;;;;;;10.13;7.70;;;5.80;91.50;;;;;;897966;155;27363;-73
2022/01/16 02:36:27;;;;;;;10.87;7.50;;;5.80;91.70;;;;;;900845;155;27532;-73
2022/01/16 02:38:46;;;;;;;8.03;6.30;;;5.70;91.70;;;;;;901049;155;27418;-73
2022/01/16 02:41:11;;;;;;;8.60;6.87;;;5.70;91.70;;;;;;901488;155;27414;-73
2022/01/16 02:43:44;;;;;;;9.73;7.13;;;5.70;91.70;;;;;;899193;155;27513;-73
2022/01/16 02:46:37;;;;;;;9.23;7.43;;;5.70;91.80;;;;;;898908;156;27469;-74
2022/01/16 02:48:36;;;;;;;7.10;5.63;;;5.70;91.70;;;;;;890579;155;27519;-73
2022/01/16 02:51:03;;;;;;;9.43;6.70;;;5.70;91.70;;;;;;900982;155;27447;-73
2022/01/16 02:53:30;;;;;;;7.90;6.77;;;5.60;91.70;;;;;;901465;155;27365;-73
2022/01/16 02:55:56;;;;;;;10.30;7.70;;;5.60;91.80;;;;;;899988;156;27523;-74
2022/01/16 02:58:23;;;;;;;9.70;7.03;;;5.60;91.80;;;;;;899771;155;27406;-73
2022/01/16 03:00:49;;;;;;;10.80;8.20;;;5.60;91.90;;;;;;900561;155;28501;-73
2022/01/16 03:03:16;;;;;;;9.57;8.03;;;5.50;91.90;;;;;;901401;155;27447;-73
2022/01/16 03:05:43;;;;;;;8.97;6.77;;;5.60;91.90;;;;;;898358;156;27347;-73
2022/01/16 03:08:09;;;;;;;9.97;7.10;;;5.50;91.90;;;;;;901531;155;27423;-73
2022/01/16 03:13:02;;;;;;;8.17;7.37;;;5.50;92.20;;;;;;901033;155;27435;-74
2022/01/16 03:15:30;;;;;;;9.13;7.03;;;5.50;92.20;;;;;;898519;156;27453;-73
2022/01/16 03:23:09;;;;;;;9.10;6.70;;;5.50;92.50;;;;;;900124;155;27556;-74
2022/01/16 03:25:36;;;;;;;8.70;6.57;;;5.60;92.60;;;;;;899622;156;27525;-73
2022/01/16 03:28:02;;;;;;;10.47;7.93;;;5.60;92.70;;;;;;899882;155;28044;-73
2022/01/16 03:30:29;;;;;;;9.90;7.90;;;5.60;92.70;;;;;;898680;156;27409;-74
2022/01/16 03:32:56;;;;;;;9.27;7.70;;;5.60;92.70;;;;;;922392;152;27398;-73
2022/01/16 03:35:22;;;;;;;11.87;8.13;;;5.70;92.70;;;;;;898723;156;27378;-73
2022/01/16 03:37:49;;;;;;;11.43;7.77;;;5.70;92.70;;;;;;900138;155;27439;-75
2022/01/16 03:40:16;;;;;;;9.57;7.40;;;5.70;92.70;;;;;;896151;155;27446;-82
2022/01/16 03:42:45;;;;;;;12.27;8.33;;;5.80;92.70;;;;;;918871;152;27304;-82
2022/01/16 03:45:11;;;;;;;10.80;8.43;;;5.80;92.70;;;;;;900043;155;27433;-80
2022/01/16 03:47:38;;;;;;;10.87;9.00;;;5.80;92.60;;;;;;897837;155;27427;-80
2022/01/16 03:50:04;;;;;;;8.10;7.27;;;5.80;92.60;;;;;;897503;156;27593;-74
2022/01/16 03:52:31;;;;;;;9.77;7.97;;;5.80;92.50;;;;;;899402;156;27443;-79
2022/01/16 03:54:58;;;;;;;11.90;8.67;;;5.80;92.50;;;;;;897706;155;27378;-82
2022/01/16 03:57:24;;;;;;;9.57;7.83;;;5.80;92.60;;;;;;900058;155;27336;-80
2022/01/16 03:59:51;;;;;;;12.47;9.03;;;5.80;92.50;;;;;;899352;155;27453;-77
2022/01/16 04:02:17;;;;;;;9.87;7.83;;;5.80;92.60;;;;;;898286;155;27455;-77
2022/01/16 04:04:44;;;;;;;10.93;8.63;;;5.80;92.60;;;;;;899480;156;27443;-81
2022/01/16 04:07:15;;;;;;;8.97;7.70;;;5.80;92.60;;;;;;898337;155;27482;-82
2022/01/16 04:09:37;;;;;;;12.87;9.00;;;5.80;92.60;;;;;;919403;152;27445;-80
2022/01/16 04:12:04;;;;;;;10.23;8.07;;;5.80;92.50;;;;;;882487;156;27522;-80
2022/01/16 04:17:12;;;;;;;9.70;7.83;;;5.80;92.60;;;;;;921413;152;27517;-75
2022/01/16 04:19:39;;;;;;;10.77;8.40;;;5.80;92.60;;;;;;919721;153;27462;-82
2022/01/16 04:22:05;;;;;;;10.10;8.03;;;5.80;92.70;;;;;;888962;158;27521;-83
2022/01/16 04:24:32;;;;;;;10.63;8.17;;;5.80;92.70;;;;;;918783;152;27355;-81
2022/01/16 04:26:58;;;;;;;11.43;8.97;;;5.80;92.70;;;;;;920552;152;27491;-82
2022/01/16 04:29:25;;;;;;;10.77;8.47;;;5.80;92.80;;;;;;917585;151;27312;-79
2022/01/16 04:31:52;;;;;;;9.53;8.20;;;5.80;92.70;;;;;;884183;158;27481;-80
2022/01/16 04:34:18;;;;;;;10.03;8.03;;;5.80;92.60;;;;;;903181;158;27402;-82
2022/01/16 04:36:45;;;;;;;9.80;8.43;;;5.80;92.80;;;;;;902045;158;27394;-81
2022/01/16 04:39:18;;;;;;;11.00;8.63;;;5.80;92.80;;;;;;904001;155;27303;-81
2022/01/16 04:44:26;;;;;;;12.40;9.30;;;5.80;92.90;;;;;;898673;156;27438;-81
2022/01/16 04:46:52;;;;;;;12.23;8.83;;;5.70;92.90;;;;;;918942;152;27354;-81
2022/01/16 04:49:18;;;;;;;12.30;8.80;;;5.80;93.00;;;;;;919649;152;27789;-81
2022/01/16 04:51:45;;;;;;;12.13;9.03;;;5.80;93.00;;;;;;882518;158;27516;-79
2022/01/16 04:54:12;;;;;;;11.47;8.93;;;5.80;93.10;;;;;;918800;152;27423;-74
2022/01/16 04:56:38;;;;;;;11.70;8.57;;;5.80;93.10;;;;;;919458;152;27410;-81
2022/01/16 04:59:05;;;;;;;11.33;9.03;;;5.80;93.10;;;;;;899257;155;27394;-73
2022/01/16 05:01:31;;;;;;;12.47;9.20;;;5.80;93.10;;;;;;898419;155;27565;-80
2022/01/16 05:03:58;;;;;;;12.93;9.87;;;5.80;93.10;;;;;;890238;159;27432;-78
2022/01/16 05:06:24;;;;;;;11.87;9.73;;;5.80;93.10;;;;;;892000;157;28142;-76
2022/01/16 05:08:51;;;;;;;11.07;9.40;;;5.90;93.30;;;;;;889764;157;27357;-81
2022/01/16 05:11:24;;;;;;;11.87;9.07;;;5.90;93.10;;;;;;891420;158;27514;-81
2022/01/16 05:18:56;;;;;;;14.37;9.70;;;5.80;93.10;;;;;;890894;157;27498;-80
2022/01/16 05:21:22;;;;;;;11.40;9.17;;;5.80;93.10;;;;;;891061;157;27522;-78
2022/01/16 05:23:49;;;;;;;10.67;8.70;;;5.90;93.10;;;;;;890361;157;27440;-81
2022/01/16 05:26:17;;;;;;;14.40;9.87;;;5.80;93.00;;;;;;888962;157;27545;-79
2022/01/16 05:28:42;;;;;;;12.83;9.27;;;5.80;93.10;;;;;;890172;157;27491;-81
2022/01/16 05:31:09;;;;;;;13.47;9.87;;;5.80;93.40;;;;;;892313;157;27961;-75
2022/01/16 05:33:35;;;;;;;17.40;11.73;;;5.80;93.20;;;;;;890347;160;27390;-79
2022/01/16 05:36:02;;;;;;;21.53;12.90;;;5.80;93.20;;;;;;891015;157;27431;-80
2022/01/16 05:38:29;;;;;;;22.27;13.53;;;5.70;93.20;;;;;;889294;160;27456;-79
2022/01/16 05:40:55;;;;;;;20.53;14.10;;;5.70;93.20;;;;;;891938;157;27399;-78
2022/01/16 05:43:22;;;;;;;19.17;13.97;;;5.70;93.20;;;;;;891952;157;27427;-81
2022/01/16 05:45:48;;;;;;;17.33;12.93;;;5.70;93.20;;;;;;891258;157;27824;-81
2022/01/16 05:48:15;;;;;;;20.57;13.50;;;5.70;93.10;;;;;;890506;157;27431;-74
2022/01/16 05:50:42;;;;;;;16.90;12.10;;;5.70;93.00;;;;;;889209;157;27538;-79
2022/01/16 05:53:08;;;;;;;20.53;13.67;;;5.70;93.00;;;;;;903765;155;28598;-80
2022/01/16 05:55:37;;;;;;;22.77;14.17;;;5.70;92.90;;;;;;881643;162;27421;-81
2022/01/16 05:58:04;;;;;;;19.80;13.13;;;5.70;92.90;;;;;;904371;156;27265;-78
2022/01/16 06:00:30;;;;;;;19.10;13.00;;;5.70;92.90;;;;;;903359;157;27446;-73
2022/01/16 06:02:57;;;;;;;21.07;13.93;;;5.70;93.00;;;;;;908056;152;27491;-81
2022/01/16 06:05:24;;;;;;;20.67;13.20;;;5.60;93.00;;;;;;916195;152;27344;-81
2022/01/16 06:07:58;;;;;;;19.20;12.67;;;5.60;93.00;;;;;;914664;153;27256;-79
2022/01/16 06:10:20;;;;;;;21.63;13.27;;;5.60;93.10;;;;;;917530;152;27335;-81
2022/01/16 06:12:46;;;;;;;22.07;13.47;;;5.60;93.10;;;;;;917029;152;28148;-72
2022/01/16 06:15:13;;;;;;;20.77;14.27;;;5.60;93.10;;;;;;901894;155;27475;-78
2022/01/16 06:17:39;;;;;;;17.80;12.90;;;5.60;93.00;;;;;;899868;158;27363;-81
2022/01/16 06:20:06;;;;;;;18.63;12.93;;;5.60;93.10;;;;;;917178;153;27336;-81
2022/01/16 06:22:33;;;;;;;17.43;12.13;;;5.60;93.00;;;;;;916480;153;27367;-82
2022/01/16 06:24:59;;;;;;;17.07;12.17;;;5.60;93.00;;;;;;915027;152;27348;-79
2022/01/16 06:27:26;;;;;;;18.30;12.00;;;5.60;93.00;;;;;;915183;153;27395;-73
2022/01/16 06:29:55;;;;;;;18.20;12.70;;;5.60;92.90;;;;;;921173;150;27399;-81
2022/01/16 06:32:22;;;;;;;20.97;13.10;;;5.60;93.00;;;;;;900836;155;27410;-81
2022/01/16 06:34:48;;;;;;;18.10;12.43;;;5.60;92.90;;;;;;917334;152;27359;-79
2022/01/16 06:37:15;;;;;;;18.43;11.80;;;5.60;93.00;;;;;;917564;152;27497;-77
2022/01/16 06:39:41;;;;;;;15.37;11.63;;;5.60;93.00;;;;;;918706;152;27338;-81
2022/01/16 06:42:08;;;;;;;16.77;11.90;;;5.60;93.00;;;;;;916501;155;27477;-79
2022/01/16 06:44:35;;;;;;;16.70;12.13;;;5.60;93.00;;;;;;915432;152;27364;-82
2022/01/16 06:47:01;;;;;;;15.90;10.83;;;5.60;92.90;;;;;;917239;152;27289;-81
2022/01/16 06:49:28;;;;;;;14.77;10.53;;;5.70;92.80;;;;;;917904;152;27419;-80
2022/01/16 06:51:54;;;;;;;15.17;10.20;;;5.70;92.70;;;;;;917812;153;27449;-76
2022/01/16 06:54:21;;;;;;;15.20;10.97;;;5.60;92.60;;;;;;916139;153;27417;-81
2022/01/16 06:56:50;;;;;;;14.80;10.67;;;5.60;92.50;;;;;;916903;153;28004;-81
2022/01/16 06:59:17;;;;;;;11.00;8.87;;;5.60;92.70;;;;;;901386;155;27487;-81
2022/01/16 07:01:43;;;;;;;16.67;10.93;;;5.60;92.30;;;;;;917714;152;27335;-80
2022/01/16 07:04:10;;;;;;;11.83;9.40;;;5.60;92.30;;;;;;916520;152;27408;-73
2022/01/16 07:06:37;;;;;;;13.83;9.03;;;5.60;92.30;;;;;;900781;155;27444;-78
2022/01/16 07:09:03;;;;;;;14.20;10.20;;;5.60;92.20;;;;;;919115;152;27485;-81
2022/01/16 07:11:30;;;;;;;13.67;10.53;;;5.60;92.20;;;;;;918504;153;27360;-80
2022/01/16 07:13:56;;;;;;;14.67;9.80;;;5.60;92.30;;;;;;917813;152;27364;-80
2022/01/16 07:16:23;;;;;;;14.13;9.57;;;5.60;92.20;;;;;;915742;152;27365;-73
2022/01/16 07:18:50;;;;;;;16.13;11.47;;;5.60;92.20;;;;;;916575;152;27362;-79
2022/01/16 07:21:19;;;;;;;13.63;10.30;;;5.60;92.20;;;;;;915252;152;27371;-81
2022/01/16 07:23:45;;;;;;;14.50;10.40;;;5.60;92.20;;;;;;916873;152;27422;-78
2022/01/16 07:26:17;;;;;;;15.23;10.10;;;5.60;92.20;;;;;;900492;155;27501;-76
2022/01/16 07:28:44;;;;;;;15.27;9.87;;;5.60;92.20;;;;;;916201;152;27508;-81
2022/01/16 07:31:10;;;;;;;13.23;9.83;;;5.60;92.10;;;;;;914770;153;27328;-79
2022/01/16 07:33:37;;;;;;;12.17;9.27;;;5.60;92.00;;;;;;918552;155;27311;-81
2022/01/16 07:36:04;;;;;;;12.87;9.60;;;5.60;91.90;;;;;;918212;152;27348;-78
2022/01/16 07:38:30;;;;;;;9.67;7.60;;;5.60;91.80;;;;;;917843;152;27428;-73
2022/01/16 07:40:57;;;;;;;12.07;8.57;;;5.50;91.70;;;;;;919228;152;27380;-82
2022/01/16 07:43:23;;;;;;;9.50;7.57;;;5.50;91.60;;;;;;913415;153;28964;-81
2022/01/16 07:45:50;;;;;;;10.47;7.77;;;5.50;91.80;;;;;;917993;152;27371;-78
2022/01/16 07:48:17;;;;;;;12.17;7.67;;;5.50;91.70;;;;;;917149;153;27425;-81
2022/01/16 07:50:43;;;;;;;10.70;8.37;;;5.50;91.70;;;;;;918431;152;27390;-79
2022/01/16 07:53:10;;;;;;;8.17;6.33;;;5.50;91.70;;;;;;916263;155;27387;-78
2022/01/16 07:55:36;;;;;;;9.57;7.47;;;5.50;91.60;;;;;;886116;158;27369;-81
2022/01/16 07:58:03;;;;;;;10.47;7.53;;;5.50;91.60;;;;;;918129;155;27323;-82
2022/01/16 08:00:30;;;;;;;11.10;7.87;;;5.50;91.60;;;;;;916798;152;27833;-82
2022/01/16 08:02:57;;;;;;;9.90;7.77;;;5.50;91.60;;;;;;917351;152;27363;-78
2022/01/16 08:05:23;;;;;;;8.83;7.30;;;5.50;91.60;;;;;;918039;152;27539;-78
2022/01/16 08:07:49;;;;;;;9.40;6.87;;;5.50;91.60;;;;;;917290;152;27416;-79
2022/01/16 08:10:16;;;;;;;9.80;7.13;;;5.50;91.60;;;;;;917404;152;27423;-81
2022/01/16 08:12:42;;;;;;;9.27;7.40;;;5.50;91.60;;;;;;918887;153;27402;-78
2022/01/16 08:15:09;;;;;;;9.83;7.67;;;5.50;91.60;;;;;;917843;152;27391;-79
2022/01/16 08:17:36;;;;;;;8.93;7.70;;;5.60;91.70;;;;;;919417;151;28109;-75
2022/01/16 08:20:02;;;;;;;9.30;7.80;;;5.60;91.70;;;;;;917574;152;27376;-83
2022/01/16 08:22:29;;;;;;;8.90;7.37;;;5.60;91.60;;;;;;918314;153;27388;-80
2022/01/16 08:24:55;;;;;;;9.90;7.37;;;5.60;91.50;;;;;;917521;152;27386;-80
2022/01/16 08:27:22;;;;;;;11.20;7.43;;;5.60;91.50;;;;;;916823;153;27289;-80
2022/01/16 08:29:49;;;;;;;9.83;7.83;;;5.70;91.50;;;;;;917022;152;27412;-79
2022/01/16 08:32:16;;;;;;;12.17;8.73;;;5.70;91.50;;;;;;918465;153;27449;-80
2022/01/16 08:34:42;;;;;;;10.70;7.90;;;5.70;91.50;;;;;;919303;152;28067;-81
2022/01/16 08:37:08;;;;;;;11.37;8.73;;;5.80;91.50;;;;;;917685;153;27309;-81
2022/01/16 08:39:35;;;;;;;11.90;8.33;;;5.80;91.50;;;;;;918514;152;27708;-77
2022/01/16 08:42:01;;;;;;;11.93;9.17;;;5.80;91.50;;;;;;916457;152;27355;-78
2022/01/16 08:44:31;;;;;;;10.30;7.73;;;5.80;91.50;;;;;;898159;156;27392;-75
2022/01/16 08:46:57;;;;;;;11.27;7.93;;;5.80;91.50;;;;;;918836;153;27705;-80
2022/01/16 08:49:24;;;;;;;10.40;8.57;;;5.80;91.40;;;;;;917253;152;27435;-81
2022/01/16 08:51:55;;;;;;;11.53;8.90;;;5.90;91.40;;;;;;919807;152;27359;-79
2022/01/16 08:54:19;;;;;;;11.87;8.77;;;5.90;91.40;;;;;;900151;156;27447;-79
2022/01/16 08:56:46;;;;;;;11.70;9.03;;;5.90;91.40;;;;;;917845;153;27515;-78
2022/01/16 08:59:13;;;;;;;11.60;8.70;;;5.90;91.40;;;;;;918112;152;27396;-82
2022/01/16 09:01:42;;;;;;;12.70;8.90;;;5.90;91.40;;;;;;918668;152;27538;-82
2022/01/16 09:04:09;;;;;;;12.73;9.60;;;5.90;91.40;;;;;;918195;152;27411;-75
2022/01/16 09:06:35;;;;;;;13.63;10.27;;;6.00;91.50;;;;;;919491;152;27919;-74
2022/01/16 09:09:02;;;;;;;14.37;10.37;;;5.90;91.40;;;;;;899293;155;27447;-80
2022/01/16 09:11:29;;;;;;;12.63;9.57;;;5.90;91.40;;;;;;914512;155;27342;-79
2022/01/16 09:13:58;;;;;;;17.13;11.97;;;6.00;91.50;;;;;;916594;152;27410;-82
2022/01/16 09:16:24;;;;;;;16.00;11.70;;;6.00;91.50;;;;;;914723;155;27383;-79
2022/01/16 09:18:51;;;;;;;16.67;11.37;;;6.00;91.60;;;;;;917797;152;27469;-82
2022/01/16 09:21:18;;;;;;;14.77;11.63;;;6.00;91.70;;;;;;917747;152;27398;-79
2022/01/16 09:23:47;;;;;;;15.60;11.00;;;6.00;91.70;;;;;;917039;152;27474;-80
2022/01/16 09:26:14;;;;;;;14.93;10.93;;;6.10;91.70;;;;;;915159;152;27360;-81
2022/01/16 09:28:40;;;;;;;15.10;10.53;;;6.00;91.70;;;;;;917508;152;27425;-79
2022/01/16 09:31:07;;;;;;;15.27;11.63;;;6.10;91.70;;;;;;916183;155;27354;-75
2022/01/16 09:33:34;;;;;;;16.97;10.97;;;6.10;91.70;;;;;;916667;152;27449;-81
2022/01/16 09:36:03;;;;;;;15.67;11.03;;;6.10;91.80;;;;;;917024;152;27340;-82
2022/01/16 09:38:29;;;;;;;16.53;11.60;;;6.10;91.70;;;;;;916641;155;27399;-82
2022/01/16 09:40:56;;;;;;;15.47;11.13;;;6.10;91.80;;;;;;916867;152;27361;-77
2022/01/16 09:43:23;;;;;;;18.83;11.30;;;6.10;91.80;;;;;;916219;155;27469;-82
2022/01/16 09:45:53;;;;;;;17.60;11.17;;;6.20;91.80;;;;;;916348;152;27417;-79
2022/01/16 09:48:18;;;;;;;17.47;11.37;;;6.20;91.80;;;;;;917268;152;27366;-82
2022/01/16 09:50:45;;;;;;;15.67;11.87;;;6.10;91.60;;;;;;916121;152;27474;-80
2022/01/16 09:53:12;;;;;;;18.67;12.03;;;6.10;91.60;;;;;;915526;155;27392;-75
2022/01/16 09:55:38;;;;;;;17.47;11.97;;;6.10;91.70;;;;;;918929;152;27465;-80
2022/01/16 09:58:05;;;;;;;17.03;11.90;;;6.10;91.80;;;;;;914629;152;27379;-82
2022/01/16 10:00:31;;;;;;;17.83;12.27;;;6.20;91.90;;;;;;916772;153;27293;-82
2022/01/16 10:02:58;;;;;;;18.07;11.60;;;6.10;91.90;;;;;;917677;152;27471;-79
2022/01/16 10:05:24;;;;;;;16.67;12.07;;;6.10;92.00;;;;;;916152;152;27528;-75
2022/01/16 10:07:51;;;;;;;19.77;13.53;;;6.20;92.00;;;;;;900806;155;27524;-82
2022/01/16 10:10:17;;;;;;;20.77;13.00;;;6.20;92.10;;;;;;916174;152;27398;-82
2022/01/16 10:12:51;;;;;;;14.70;11.67;;;6.20;92.10;;;;;;917345;155;27305;-82
2022/01/16 10:15:19;;;;;;;19.10;12.53;;;6.30;92.10;;;;;;917655;152;27360;-82
2022/01/16 10:17:46;;;;;;;16.67;12.40;;;6.30;92.00;;;;;;916520;152;27509;-74
2022/01/16 10:20:16;;;;;;;18.97;13.53;;;6.30;92.10;;;;;;901485;155;27434;-82
2022/01/16 10:22:45;;;;;;;17.37;12.37;;;6.30;92.20;;;;;;917613;152;27314;-82
2022/01/16 10:25:14;;;;;;;16.87;12.10;;;6.30;92.50;;;;;;915457;152;27374;-83
2022/01/16 10:27:41;;;;;;;17.17;12.83;;;6.40;92.20;;;;;;916784;152;27369;-77
2022/01/16 10:30:07;;;;;;;17.87;12.30;;;6.40;92.10;;;;;;900619;158;27450;-83
2022/01/16 10:32:34;;;;;;;19.03;12.67;;;6.50;92.10;;;;;;916606;152;27653;-82
2022/01/16 10:35:06;;;;;;;18.87;13.20;;;6.50;91.90;;;;;;914392;155;27304;-82
2022/01/16 10:37:33;;;;;;;18.27;12.03;;;6.50;91.90;;;;;;916513;153;27352;-80
2022/01/16 10:40:09;;;;;;;17.37;11.87;;;6.50;91.80;;;;;;915994;155;27371;-79
2022/01/16 10:42:35;;;;;;;15.83;11.67;;;6.60;91.70;;;;;;915400;155;27388;-75
2022/01/16 10:45:05;;;;;;;17.47;11.50;;;6.60;91.70;;;;;;918300;152;27496;-83
2022/01/16 10:47:32;;;;;;;17.70;11.80;;;6.60;91.70;;;;;;921336;152;27496;-82
2022/01/16 10:50:04;;;;;;;18.40;12.53;;;6.60;91.60;;;;;;901379;155;27383;-83
2022/01/16 10:52:31;;;;;;;18.77;12.83;;;6.60;91.60;;;;;;901886;156;27383;-81
2022/01/16 10:55:06;;;;;;;18.93;12.67;;;6.60;91.60;;;;;;901836;158;27422;-78
2022/01/16 10:57:33;;;;;;;17.80;12.47;;;6.60;91.60;;;;;;898455;158;27433;-83
2022/01/16 11:00:08;;;;;;;19.50;12.73;;;6.60;91.60;;;;;;901650;155;27418;-78
2022/01/16 11:02:35;;;;;;;20.23;12.27;;;6.60;91.50;;;;;;904488;155;27383;-83
2022/01/16 11:05:04;;;;;;;21.53;14.00;;;6.60;91.50;;;;;;902191;155;27528;-80
2022/01/16 11:07:31;;;;;;;16.87;12.27;;;6.60;91.50;;;;;;897766;156;27967;-82
2022/01/16 11:09:57;;;;;;;19.47;14.03;;;6.60;91.50;;;;;;896105;156;27500;-82
2022/01/16 11:12:24;;;;;;;21.67;14.13;;;6.50;91.50;;;;;;895285;156;27410;-79
2022/01/16 11:14:50;;;;;;;21.80;14.13;;;6.50;91.50;;;;;;897836;156;27551;-83
2022/01/16 11:17:17;;;;;;;23.83;14.07;;;6.50;91.50;;;;;;897935;156;27415;-79
2022/01/16 11:19:44;;;;;;;18.73;13.53;;;6.50;91.50;;;;;;895489;156;27444;-78
2022/01/16 11:22:11;;;;;;;20.27;15.00;;;6.50;91.50;;;;;;894622;156;27459;-80
2022/01/16 11:24:48;;;;;;;18.73;12.50;;;6.50;91.40;;;;;;879349;160;28129;-81
2022/01/16 11:27:03;;;;;;;18.07;12.87;;;6.50;91.50;;;;;;911867;153;27360;-83
2022/01/16 11:29:30;;;;;;;21.40;15.00;;;6.50;91.40;;;;;;897812;156;27876;-82
2022/01/16 11:32:01;;;;;;;24.77;16.43;;;6.50;91.40;;;;;;908082;154;27523;-77
2022/01/16 11:34:28;;;;;;;20.13;14.37;;;6.40;91.30;;;;;;911550;154;27400;-83
2022/01/16 11:36:53;;;;;;;21.53;13.60;;;6.40;91.30;;;;;;906732;154;27365;-80
2022/01/16 11:39:20;;;;;;;19.40;13.17;;;6.40;91.40;;;;;;910382;154;27364;-83
2022/01/16 11:41:53;;;;;;;25.17;16.13;;;6.50;91.50;;;;;;909629;154;27385;-82
2022/01/16 11:44:22;;;;;;;19.07;14.77;;;6.40;91.50;;;;;;908955;154;27583;-77
2022/01/16 11:46:55;;;;;;;23.20;13.20;;;6.40;91.50;;;;;;906889;156;27509;-83
2022/01/16 11:49:42;;;;;;;19.50;13.00;;;6.50;91.50;;;;;;909771;154;27400;-82
2022/01/16 11:52:11;;;;;;;18.70;13.10;;;6.50;91.50;;;;;;908037;154;27245;-83
2022/01/16 11:54:40;;;;;;;20.03;13.17;;;6.50;91.40;;;;;;909837;154;27466;-82
2022/01/16 11:57:08;;;;;;;18.37;13.07;;;6.50;91.10;;;;;;907832;154;27346;-74
2022/01/16 11:59:36;;;;;;;21.07;14.20;;;6.40;91.30;;;;;;905290;154;27405;-78
2022/01/16 12:02:03;;;;;;;21.50;14.20;;;6.50;91.30;;;;;;906002;154;27419;-83
2022/01/16 12:04:29;;;;;;;18.03;12.50;;;6.40;91.20;;;;;;907220;154;27412;-83
2022/01/16 12:06:56;;;;;;;19.07;12.63;;;6.40;91.20;;;;;;905391;154;27409;-79
2022/01/16 12:12:13;;;;;;;16.53;11.37;;;6.40;91.10;;;;;;911364;154;27422;-83
2022/01/16 12:15:01;;;;;;;16.03;12.07;;;6.30;91.10;;;;;;894857;159;27482;-82
2022/01/16 12:17:34;;;;;;;17.47;12.23;;;6.30;91.20;;;;;;908199;154;27298;-82
2022/01/16 12:20:18;;;;;;;15.93;11.67;;;6.40;91.30;;;;;;908473;154;27364;-81
2022/01/16 12:22:47;;;;;;;17.17;12.03;;;6.30;91.40;;;;;;906582;154;27510;-74
2022/01/16 12:25:16;;;;;;;17.87;12.93;;;6.40;91.30;;;;;;908239;154;27951;-82
2022/01/16 12:27:49;;;;;;;16.03;12.43;;;6.40;91.30;;;;;;908881;154;27426;-81
2022/01/16 12:30:15;;;;;;;16.43;11.57;;;6.40;91.30;;;;;;899493;153;27411;-81
2022/01/16 12:33:09;;;;;;;18.67;12.70;;;6.40;91.30;;;;;;893767;156;27516;-75
2022/01/16 12:35:42;;;;;;;18.07;12.00;;;6.40;91.40;;;;;;906574;154;27412;-83
2022/01/16 12:38:11;;;;;;;18.53;12.43;;;6.40;91.40;;;;;;909880;154;27404;-81
2022/01/16 12:40:42;;;;;;;18.97;13.50;;;6.40;91.50;;;;;;907164;154;27379;-82
2022/01/16 12:43:13;;;;;;;15.87;11.83;;;6.50;91.60;;;;;;909364;152;27352;-81
2022/01/16 12:45:39;;;;;;;17.87;12.57;;;6.50;91.60;;;;;;906189;154;27543;-80
2022/01/16 12:48:08;;;;;;;19.83;13.27;;;6.60;91.70;;;;;;915686;153;27360;-83
2022/01/16 12:50:35;;;;;;;17.97;13.80;;;6.60;91.60;;;;;;895252;156;27376;-79
2022/01/16 12:53:02;;;;;;;19.37;12.83;;;6.70;91.60;;;;;;897430;156;27408;-82
2022/01/16 12:55:28;;;;;;;17.30;13.13;;;6.70;91.60;;;;;;898094;156;27412;-75
2022/01/16 12:57:55;;;;;;;19.30;13.10;;;6.80;91.50;;;;;;908377;154;27392;-82
2022/01/16 13:00:21;;;;;;;20.03;13.57;;;6.80;91.40;;;;;;907070;154;27341;-82
2022/01/16 13:02:54;;;;;;;19.00;13.57;;;6.90;91.30;;;;;;907910;154;27479;-83
2022/01/16 13:05:21;;;;;;;18.20;12.50;;;6.90;91.20;;;;;;908389;154;27310;-82
2022/01/16 13:07:47;;;;;;;18.73;13.03;;;6.90;91.10;;;;;;912056;153;27340;-78
2022/01/16 13:10:14;;;;;;;19.90;13.37;;;7.00;91.10;;;;;;898316;156;27465;-80
2022/01/16 13:12:40;;;;;;;19.37;13.17;;;7.00;91.00;;;;;;919795;152;28520;-80
2022/01/16 13:15:07;;;;;;;20.77;15.07;;;7.00;90.90;;;;;;902509;155;27474;-82
2022/01/16 13:17:33;;;;;;;19.77;14.00;;;7.00;90.70;;;;;;903691;155;27423;-82
2022/01/16 13:20:02;;;;;;;19.67;14.17;;;7.00;90.60;;;;;;903877;155;27380;-78
2022/01/16 13:22:27;;;;;;;18.93;13.50;;;7.10;90.60;;;;;;901914;155;27532;-81
2022/01/16 13:24:58;;;;;;;18.07;13.60;;;7.00;90.60;;;;;;902318;155;27446;-82
2022/01/16 13:27:23;;;;;;;18.20;12.77;;;7.00;90.50;;;;;;904538;154;27391;-83
2022/01/16 13:29:55;;;;;;;18.00;13.87;;;7.00;90.50;;;;;;900946;155;27359;-83
2022/01/16 13:32:28;;;;;;;23.37;13.73;;;7.00;90.70;;;;;;902093;155;27392;-77